AEE214 LGAV-LGRP
Flight info
| Callsign | AEE214 |
|---|---|
| Flight time | N/A |
| Altitude | 31000 |
| Route | KEA UL995 CODIC |
| Aircraft | A320/M-SDE3FGHIRWY/LB1 |
Departure
| Time | N/A |
|---|---|
| Airport | Athens Eleftherios Venizelos International Airport (LGAV) |
Arrival
| Time | 2026-05-04 17:26 |
|---|---|
| Airport | Rhodes International Airport "Diagoras" (LGRP) |
| Time | Latitude | Longitude | Altitude | Speed | Heading |
|---|---|---|---|---|---|
| 2026-05-04 16:56 | 37.30287 | 25.74214 | 31106 ft | 478 kts | 117° |
| 2026-05-04 16:57 | 37.25455 | 25.85162 | 31096 ft | 478 kts | 117° |
| 2026-05-04 16:58 | 37.19004 | 25.99701 | 31095 ft | 479 kts | 117° |
| 2026-05-04 17:00 | 37.09245 | 26.21606 | 31077 ft | 480 kts | 118° |
| 2026-05-04 17:01 | 37.01081 | 26.39830 | 30083 ft | 480 kts | 117° |
| 2026-05-04 17:01 | 36.97826 | 26.47067 | 28544 ft | 473 kts | 117° |
| 2026-05-04 17:02 | 36.94664 | 26.54063 | 27418 ft | 457 kts | 117° |
| 2026-05-04 17:02 | 36.91583 | 26.60889 | 26302 ft | 444 kts | 117° |
| 2026-05-04 17:03 | 36.90077 | 26.64226 | 25768 ft | 438 kts | 117° |
| 2026-05-04 17:03 | 36.88590 | 26.67511 | 25243 ft | 432 kts | 116° |
| 2026-05-04 17:03 | 36.85616 | 26.74063 | 23036 ft | 443 kts | 115° |
| 2026-05-04 17:04 | 36.82526 | 26.80848 | 20527 ft | 452 kts | 116° |
| 2026-05-04 17:04 | 36.79940 | 26.86500 | 18908 ft | 450 kts | 116° |
| 2026-05-04 17:05 | 36.76353 | 26.94326 | 16720 ft | 443 kts | 117° |
| 2026-05-04 17:05 | 36.73318 | 27.00941 | 15080 ft | 436 kts | 117° |
| 2026-05-04 17:06 | 36.70877 | 27.06243 | 14718 ft | 410 kts | 117° |
| 2026-05-04 17:06 | 36.69486 | 27.09257 | 14578 ft | 393 kts | 117° |
| 2026-05-04 17:07 | 36.66988 | 27.15139 | 13676 ft | 379 kts | 111° |
| 2026-05-04 17:07 | 36.66296 | 27.17130 | 13274 ft | 377 kts | 110° |
| 2026-05-04 17:07 | 36.64907 | 27.21117 | 12505 ft | 373 kts | 110° |
| 2026-05-04 17:07 | 36.63876 | 27.24072 | 11948 ft | 371 kts | 110° |
| 2026-05-04 17:08 | 36.62849 | 27.27001 | 11376 ft | 368 kts | 110° |
| 2026-05-04 17:08 | 36.60822 | 27.32774 | 10310 ft | 364 kts | 110° |
| 2026-05-04 17:08 | 36.59813 | 27.35645 | 9925 ft | 357 kts | 110° |
| 2026-05-04 17:09 | 36.58835 | 27.38422 | 9787 ft | 344 kts | 110° |
| 2026-05-04 17:09 | 36.57892 | 27.41087 | 9647 ft | 331 kts | 111° |
| 2026-05-04 17:09 | 36.56977 | 27.43665 | 9504 ft | 320 kts | 110° |
| 2026-05-04 17:10 | 36.55228 | 27.48604 | 9058 ft | 307 kts | 110° |
| 2026-05-04 17:10 | 36.52692 | 27.55795 | 8074 ft | 302 kts | 110° |
| 2026-05-04 17:11 | 36.51853 | 27.58177 | 7741 ft | 300 kts | 110° |
| 2026-05-04 17:11 | 36.51017 | 27.60551 | 7417 ft | 299 kts | 110° |
| 2026-05-04 17:11 | 36.49429 | 27.65299 | 6774 ft | 294 kts | 103° |
| 2026-05-04 17:12 | 36.48949 | 27.67747 | 6459 ft | 290 kts | 96° |
| 2026-05-04 17:12 | 36.48258 | 27.72652 | 5772 ft | 287 kts | 95° |
| 2026-05-04 17:13 | 36.47241 | 27.79893 | 4792 ft | 283 kts | 95° |
| 2026-05-04 17:14 | 36.46241 | 27.86975 | 4117 ft | 266 kts | 95° |
| 2026-05-04 17:14 | 36.45914 | 27.89200 | 3979 ft | 257 kts | 95° |
| 2026-05-04 17:14 | 36.45386 | 27.92773 | 3752 ft | 241 kts | 96° |
| 2026-05-04 17:15 | 36.45092 | 27.94771 | 3576 ft | 235 kts | 95° |
| 2026-05-04 17:15 | 36.44506 | 27.98717 | 3050 ft | 231 kts | 96° |
| 2026-05-04 17:16 | 36.43950 | 28.02613 | 2587 ft | 224 kts | 96° |
| 2026-05-04 17:16 | 36.44695 | 28.07824 | 2035 ft | 192 kts | 64° |
| 2026-05-04 17:17 | 36.45104 | 28.09339 | 1999 ft | 180 kts | 63° |
| 2026-05-04 17:17 | 36.46345 | 28.13700 | 1842 ft | 181 kts | 63° |
| 2026-05-04 17:18 | 36.46416 | 28.15239 | 1641 ft | 180 kts | 107° |
| 2026-05-04 17:18 | 36.44574 | 28.17074 | 1445 ft | 173 kts | 175° |
| 2026-05-04 17:19 | 36.42863 | 28.16035 | 1214 ft | 131 kts | 243° |
| 2026-05-04 17:19 | 36.42117 | 28.14040 | 743 ft | 129 kts | 262° |
| 2026-05-04 17:20 | 36.41510 | 28.11932 | 351 ft | 131 kts | 256° |
| 2026-05-04 17:20 | 36.40883 | 28.09808 | 30 ft | 129 kts | 254° |
| 2026-05-04 17:20 | 36.40554 | 28.08698 | 604 ft | 140 kts | 257° |
| 2026-05-04 17:21 | 36.40978 | 28.06541 | 2041 ft | 152 kts | 327° |
| 2026-05-04 17:21 | 36.43162 | 28.07198 | 1952 ft | 197 kts | 45° |
| 2026-05-04 17:22 | 36.43775 | 28.08754 | 1980 ft | 204 kts | 65° |
| 2026-05-04 17:22 | 36.44260 | 28.10380 | 2053 ft | 204 kts | 62° |
| 2026-05-04 17:23 | 36.45667 | 28.14981 | 1723 ft | 177 kts | 77° |
| 2026-05-04 17:23 | 36.45387 | 28.16425 | 1465 ft | 175 kts | 131° |
| 2026-05-04 17:23 | 36.43291 | 28.17023 | 1234 ft | 150 kts | 225° |
| 2026-05-04 17:24 | 36.42730 | 28.16074 | 1031 ft | 135 kts | 257° |
| 2026-05-04 17:24 | 36.41728 | 28.12690 | 475 ft | 141 kts | 257° |
| 2026-05-04 17:25 | 36.41391 | 28.11554 | 272 ft | 141 kts | 257° |
| 2026-05-04 17:25 | 36.40756 | 28.09369 | 32 ft | 110 kts | 250° |
| 2026-05-04 17:26 | 36.40483 | 28.08616 | 26 ft | 6 kts | 114° |
| 2026-05-04 17:26 | 36.40403 | 28.08819 | 29 ft | 10 kts | 105° |
| 2026-05-04 17:27 | 36.40366 | 28.09013 | 29 ft | 13 kts | 156° |
| 2026-05-04 17:27 | 36.40337 | 28.09024 | 29 ft | 0 kts | 159° |